Aeroporto :
LOGIN :

Iscrizione | Disclaimer

   EN    FR    IT 

 










Sommario :    VFR   VFR Marginale   IFR   IFR Intensivo   IFR Molto Intensivo
Visibilità : 
Base nubi : 
>= 8 km
>= 3000ft
5 / 8 km
1000 / 3000 ft
1500m / 5 km
500 / 1000 ft
800 / 1500m
200 / 500 ft
< 800m
< 200 ft
Simboli :   Temporali  Nebbia  Neve Forte  Precipitazioni Forti  Vento > 20 kt
SIGMETs :   Varie  Temporali  Ghiacco  Turbolenza  Onda orograficha  Ceneri Vulcaniche






- Altitudine del aeroporto : 247 ft
- Codice IATA : BLL


EKBI - Billund

ULTIMO METAR :
  • 150950Z 22026G47KT 170V250 8000 -SHRA BKN011CB BKN013 05/03 Q0981

METARs OBSOLETI :
  • 150850Z 14015G26KT 110V170 8000 -SHRA OVC008 BKN011CB 03/03 Q0981
  • 150820Z 14015G26KT 8000 -SHRA OVC008 BKN011CB 03/02 Q0982
  • 150750Z 15015KT 110V180 9999 -SHRA BKN011CB OVC012 03/02 Q0983
  • 150720Z AUTO 14011KT 8000 -RA OVC026/// 03/02 Q0984

TAF AMD TAF EKBI
Valido dal 15 a 10 ore il 16 a 06 ore UTC


150956Z 1510/1606 22025G48KT 9999 BKN025
TEMPO 1510/1513 23020G35KT 4000 SHRA BKN010CB
TEMPO 1513/1521 4000 SHRA BKN010 SCT020CB
BECMG 1513/1516 25020G35KT
BECMG 1516/1519 24010KT
TEMPO 1605/1606 4000 SHRA BKN008 BKN020CB



MetMap, La meteo Aeronautica in un colpo d'occhio ! - Copyright ORBIFLY Dicembre 2007 - Disclaimer

ORBIFLY MET'MAP TEAM :

Programmazione e sviluppo : Alexandra Zaïnal
Concezione : Baudouin d'Aumeries
Aiuto per la programmazione : Marc-Olivier Méhu
Supporto tecnico e logistico : Manuel Goepfert
Aiuto per la traduzione : Arnaldo La Scala

Contatto : metmap@orbifly.com




FONTI E CREDITI :

   NOAA